createdAt,value
2023-04-10T00:00:45.621Z,7.40
2023-04-10T00:03:47.495Z,7.50
2023-04-10T00:06:49.202Z,7.40
2023-04-10T00:09:50.868Z,7.30
2023-04-10T00:12:53.833Z,7.20
2023-04-10T00:15:55.721Z,7.20
2023-04-10T00:18:57.338Z,7.10
2023-04-10T00:21:59.153Z,7.00
2023-04-10T00:25:00.829Z,6.90
2023-04-10T00:28:02.393Z,6.80
2023-04-10T00:31:05.512Z,6.60
2023-04-10T00:34:07.101Z,6.50
2023-04-10T00:37:08.654Z,6.40
2023-04-10T00:40:10.550Z,6.30
2023-04-10T00:43:12.115Z,6.20
2023-04-10T00:46:13.770Z,6.10
2023-04-10T00:49:15.839Z,6.10
2023-04-10T00:52:17.882Z,5.90
2023-04-10T00:55:19.525Z,5.90
2023-04-10T00:58:21.197Z,5.80
2023-04-10T01:01:22.897Z,5.70
2023-04-10T01:04:28.413Z,5.70
2023-04-10T01:08:08.359Z,5.60
2023-04-10T01:11:18.512Z,5.60
2023-04-10T01:15:04.154Z,5.60
2023-04-10T01:18:24.255Z,5.60
2023-04-10T01:21:27.929Z,5.50
2023-04-10T01:25:00.916Z,5.40
2023-04-10T01:28:21.544Z,5.40
2023-04-10T01:31:50.890Z,5.30
2023-04-10T01:34:55.364Z,5.20
2023-04-10T01:37:59.867Z,5.20
2023-04-10T01:41:02.220Z,5.20
2023-04-10T01:44:06.020Z,5.10
2023-04-10T01:47:08.148Z,5.10
2023-04-10T01:50:11.943Z,5.00
2023-04-10T01:53:14.465Z,4.80
2023-04-10T01:56:16.564Z,4.80
2023-04-10T01:59:18.756Z,4.80
2023-04-10T02:02:20.580Z,4.70
2023-04-10T02:05:27.663Z,4.60
2023-04-10T02:08:39.600Z,4.60
2023-04-10T02:12:01.868Z,4.60
2023-04-10T02:15:06.437Z,4.50
2023-04-10T02:18:10.488Z,4.30
2023-04-10T02:21:12.225Z,4.20
2023-04-10T02:24:14.032Z,4.10
2023-04-10T02:27:16.398Z,4.00
2023-04-10T02:30:18.095Z,3.90
2023-04-10T02:33:19.678Z,3.80
2023-04-10T02:36:21.500Z,3.70
2023-04-10T02:39:23.087Z,3.70
2023-04-10T02:42:24.670Z,3.70
2023-04-10T02:45:26.311Z,3.60
2023-04-10T02:48:27.895Z,3.70
2023-04-10T02:51:29.478Z,3.60
2023-04-10T02:54:31.298Z,3.60
2023-04-10T02:57:32.895Z,3.60
2023-04-10T03:00:34.494Z,3.70
2023-04-10T03:03:36.229Z,3.70
2023-04-10T03:06:37.817Z,3.70
2023-04-10T03:09:39.437Z,3.70
2023-04-10T03:12:41.010Z,3.70
2023-04-10T03:15:42.634Z,3.70
2023-04-10T03:18:45.705Z,3.70
2023-04-10T03:21:47.392Z,3.70
2023-04-10T03:24:48.966Z,3.70
2023-04-10T03:27:50.606Z,3.80
2023-04-10T03:30:52.262Z,3.80
2023-04-10T03:33:54.035Z,3.80
2023-04-10T03:36:55.936Z,3.70
2023-04-10T03:39:57.559Z,3.70
2023-04-10T03:42:59.200Z,3.70
2023-04-10T03:46:01.837Z,3.60
2023-04-10T03:49:03.534Z,3.60
2023-04-10T03:52:05.209Z,3.70
2023-04-10T03:55:07.189Z,3.60
2023-04-10T03:58:08.786Z,3.60
2023-04-10T04:01:11.269Z,3.60
2023-04-10T04:04:13.079Z,3.60
2023-04-10T04:07:14.813Z,3.60
2023-04-10T04:10:16.425Z,3.50
2023-04-10T04:13:17.997Z,3.50
2023-04-10T04:16:19.686Z,3.60
2023-04-10T04:19:21.288Z,3.60
2023-04-10T04:22:22.862Z,3.60
2023-04-10T04:25:24.450Z,3.60
2023-04-10T04:28:27.058Z,3.70
2023-04-10T04:31:32.514Z,3.70
2023-04-10T04:34:34.327Z,3.70
2023-04-10T04:37:35.887Z,3.70
2023-04-10T04:40:37.581Z,3.70
2023-04-10T04:43:39.177Z,3.70
2023-04-10T04:46:43.195Z,3.70
2023-04-10T04:49:45.984Z,3.80
2023-04-10T04:52:49.137Z,3.70
2023-04-10T04:55:50.707Z,3.80
2023-04-10T04:58:52.485Z,3.80
2023-04-10T05:01:54.214Z,3.90
2023-04-10T05:04:55.947Z,3.90
2023-04-10T05:07:57.538Z,4.00
2023-04-10T05:10:59.150Z,4.00
2023-04-10T05:14:01.056Z,4.10
2023-04-10T05:17:03.654Z,4.20
2023-04-10T05:20:06.216Z,4.30
2023-04-10T05:23:07.806Z,4.40
2023-04-10T05:26:09.454Z,4.50
2023-04-10T05:29:11.084Z,4.60
2023-04-10T05:32:14.243Z,4.60
2023-04-10T05:35:15.850Z,4.70
2023-04-10T05:38:17.418Z,4.80
2023-04-10T05:41:19.138Z,4.90
2023-04-10T05:44:20.720Z,5.00
2023-04-10T05:47:22.336Z,5.10
2023-04-10T05:50:23.947Z,5.20
2023-04-10T05:53:32.202Z,5.30
2023-04-10T05:56:33.821Z,5.40
2023-04-10T05:59:35.529Z,5.50
2023-04-10T06:02:38.399Z,5.70
2023-04-10T06:05:41.491Z,5.90
2023-04-10T06:08:43.254Z,6.00
2023-04-10T06:11:44.846Z,6.10
2023-04-10T06:14:47.559Z,6.30
2023-04-10T06:17:49.291Z,6.60
2023-04-10T06:20:50.918Z,6.80
2023-04-10T06:23:52.763Z,7.00
2023-04-10T06:26:54.690Z,7.20
2023-04-10T06:29:56.712Z,7.50
2023-04-10T06:32:58.377Z,7.60
2023-04-10T06:36:01.127Z,7.80
2023-04-10T06:39:03.002Z,8.00
2023-04-10T06:42:04.698Z,8.20
2023-04-10T06:45:06.984Z,8.30
2023-04-10T06:48:08.687Z,8.50
2023-04-10T06:51:10.329Z,8.70
2023-04-10T06:54:11.908Z,9.00
2023-04-10T06:57:13.592Z,9.30
2023-04-10T07:00:15.521Z,9.40
2023-04-10T07:03:17.136Z,9.60
2023-04-10T07:06:18.768Z,9.80
2023-04-10T07:09:20.484Z,10.10
2023-04-10T07:12:22.784Z,10.30
2023-04-10T07:15:24.930Z,10.60
2023-04-10T07:18:27.091Z,10.80
2023-04-10T07:21:28.669Z,10.90
2023-04-10T07:24:32.185Z,11.10
2023-04-10T07:27:33.787Z,11.30
2023-04-10T07:30:35.639Z,11.60
2023-04-10T07:33:38.365Z,11.80
2023-04-10T07:36:40.103Z,12.00
2023-04-10T07:39:41.825Z,12.00
2023-04-10T07:42:43.446Z,12.30
2023-04-10T07:45:45.081Z,12.50
2023-04-10T07:48:49.736Z,12.80
2023-04-10T07:51:51.441Z,12.80
2023-04-10T07:54:53.022Z,12.90
2023-04-10T07:57:54.713Z,13.10
2023-04-10T08:00:56.322Z,13.20
2023-04-10T08:03:58.148Z,13.20
2023-04-10T08:06:59.938Z,13.30
2023-04-10T08:10:01.805Z,13.30
2023-04-10T08:13:03.842Z,13.40
2023-04-10T08:16:05.843Z,13.30
2023-04-10T08:19:07.450Z,13.40
2023-04-10T08:22:09.244Z,13.50
2023-04-10T08:25:10.856Z,13.50
2023-04-10T08:28:12.480Z,13.70
2023-04-10T08:31:14.397Z,13.80
2023-04-10T08:34:16.017Z,14.00
2023-04-10T08:37:19.637Z,14.20
2023-04-10T08:40:21.247Z,14.30
2023-04-10T08:43:22.956Z,14.40
2023-04-10T08:46:27.803Z,14.60
2023-04-10T08:49:31.911Z,14.80
2023-04-10T08:52:37.878Z,14.90
2023-04-10T08:55:41.105Z,15.10
2023-04-10T08:58:42.977Z,15.30
2023-04-10T09:01:46.677Z,15.60
2023-04-10T09:04:50.976Z,15.80
2023-04-10T09:07:52.672Z,15.80
2023-04-10T09:10:55.578Z,15.90
2023-04-10T09:13:58.118Z,16.20
2023-04-10T09:17:18.525Z,16.30
2023-04-10T09:20:25.827Z,16.50
2023-04-10T09:23:27.381Z,16.60
2023-04-10T09:26:31.132Z,16.60
2023-04-10T09:29:48.996Z,16.80
2023-04-10T09:32:50.894Z,16.90
2023-04-10T09:35:52.648Z,17.00
2023-04-10T09:38:54.611Z,17.10
2023-04-10T09:41:56.247Z,17.20
2023-04-10T09:44:58.301Z,17.30
2023-04-10T09:48:07.071Z,17.40
2023-04-10T09:51:29.878Z,17.30
2023-04-10T09:54:37.980Z,17.10
2023-04-10T09:57:39.646Z,17.20
2023-04-10T10:00:46.848Z,17.40
2023-04-10T10:03:48.764Z,17.50
2023-04-10T10:06:50.531Z,17.50
2023-04-10T10:09:53.152Z,17.50
2023-04-10T10:13:01.753Z,17.40
2023-04-10T10:16:11.296Z,17.50
2023-04-10T10:19:26.895Z,17.50
2023-04-10T10:22:28.983Z,17.60
2023-04-10T10:25:31.423Z,17.60
2023-04-10T10:28:34.697Z,17.50
2023-04-10T10:31:37.659Z,17.40
2023-04-10T10:34:39.546Z,17.50
2023-04-10T10:37:42.691Z,17.60
2023-04-10T10:40:59.104Z,17.70
2023-04-10T10:44:06.975Z,17.70
2023-04-10T10:47:24.586Z,17.80
2023-04-10T10:50:56.994Z,17.90
2023-04-10T10:53:58.609Z,17.90
2023-04-10T10:57:01.328Z,17.90
2023-04-10T11:00:03.243Z,17.90
2023-04-10T11:03:07.740Z,18.00
2023-04-10T11:06:12.590Z,18.00
2023-04-10T11:09:51.747Z,18.10
2023-04-10T11:13:16.965Z,18.50
2023-04-10T11:16:20.328Z,18.80
2023-04-10T11:19:23.673Z,18.90
2023-04-10T11:22:27.713Z,19.10
2023-04-10T11:25:50.200Z,19.20
2023-04-10T11:28:51.814Z,19.40
2023-04-10T11:31:58.240Z,19.60
2023-04-10T11:34:59.953Z,19.70
2023-04-10T11:38:16.345Z,19.90
2023-04-10T11:41:17.942Z,20.00
2023-04-10T11:44:25.554Z,20.10
2023-04-10T11:47:27.170Z,20.10
2023-04-10T11:50:29.661Z,20.20
2023-04-10T11:53:31.656Z,20.30
2023-04-10T11:56:33.345Z,20.40
2023-04-10T11:59:35.353Z,20.40
2023-04-10T12:02:51.417Z,20.60
2023-04-10T12:05:53.193Z,20.70
2023-04-10T12:08:55.539Z,20.70
2023-04-10T12:12:02.964Z,20.70
2023-04-10T12:15:30.608Z,20.90
2023-04-10T12:18:32.555Z,20.90
2023-04-10T12:21:38.095Z,20.80
2023-04-10T12:24:57.895Z,20.70
2023-04-10T12:28:00.729Z,20.60
2023-04-10T12:31:03.348Z,20.50
2023-04-10T12:34:07.047Z,20.50
2023-04-10T12:37:12.554Z,20.60
2023-04-10T12:40:14.627Z,20.60
2023-04-10T12:43:35.023Z,20.50
2023-04-10T12:46:37.141Z,20.40
2023-04-10T12:49:38.864Z,20.50
2023-04-10T12:52:42.952Z,20.60
2023-04-10T12:56:06.542Z,20.80
2023-04-10T12:59:08.217Z,20.90
2023-04-10T13:02:09.992Z,20.90
2023-04-10T13:05:12.268Z,20.80
2023-04-10T13:08:14.422Z,20.80
2023-04-10T13:11:16.063Z,20.80
2023-04-10T13:14:17.705Z,20.80
2023-04-10T13:17:26.105Z,21.00
2023-04-10T13:20:27.984Z,21.10
2023-04-10T13:23:29.547Z,21.20
2023-04-10T13:26:31.113Z,21.30
2023-04-10T13:29:32.644Z,21.30
2023-04-10T13:32:34.195Z,21.10
2023-04-10T13:35:35.839Z,21.10
2023-04-10T13:38:37.445Z,21.10
2023-04-10T13:41:39.019Z,20.90
2023-04-10T13:44:40.600Z,21.00
2023-04-10T13:47:42.565Z,21.10
2023-04-10T13:50:44.161Z,21.20
2023-04-10T13:53:46.102Z,21.30
2023-04-10T13:56:48.024Z,21.30
2023-04-10T13:59:49.773Z,21.40
2023-04-10T14:02:51.569Z,21.40
2023-04-10T14:05:53.932Z,21.30
2023-04-10T14:08:55.651Z,21.40
2023-04-10T14:11:57.783Z,21.40
2023-04-10T14:14:59.463Z,21.20
2023-04-10T14:18:01.029Z,21.10
2023-04-10T14:21:02.716Z,21.00
2023-04-10T14:24:04.387Z,21.00
2023-04-10T14:27:06.068Z,20.90
2023-04-10T14:30:08.787Z,20.90
2023-04-10T14:33:10.807Z,20.90
2023-04-10T14:36:12.439Z,21.00
2023-04-10T14:39:14.123Z,21.20
2023-04-10T14:42:15.703Z,21.10
2023-04-10T14:45:17.990Z,21.00
2023-04-10T14:48:21.052Z,21.10
2023-04-10T14:51:22.724Z,20.90
2023-04-10T14:54:24.674Z,20.80
2023-04-10T14:57:26.426Z,20.70
2023-04-10T15:00:29.672Z,20.60
2023-04-10T15:03:31.459Z,20.50
2023-04-10T15:06:35.848Z,20.40
2023-04-10T15:09:37.765Z,20.30
2023-04-10T15:12:39.523Z,20.20
2023-04-10T15:15:41.434Z,20.20
2023-04-10T15:18:43.332Z,20.00
2023-04-10T15:21:45.011Z,20.00
2023-04-10T15:24:50.585Z,19.80
2023-04-10T15:27:56.593Z,19.90
2023-04-10T15:30:58.366Z,19.90
2023-04-10T15:34:00.667Z,19.80
2023-04-10T15:37:02.753Z,19.80
2023-04-10T15:40:06.042Z,19.80
2023-04-10T15:43:07.684Z,19.80
2023-04-10T15:46:09.429Z,19.90
2023-04-10T15:49:11.093Z,19.90
2023-04-10T15:52:12.712Z,20.00
2023-04-10T15:55:15.493Z,20.10
2023-04-10T15:58:17.080Z,20.30
2023-04-10T16:01:18.771Z,20.40
2023-04-10T16:04:20.520Z,20.60
2023-04-10T16:07:22.187Z,20.70
2023-04-10T16:10:23.737Z,20.70
2023-04-10T16:13:25.482Z,20.60
2023-04-10T16:16:28.908Z,20.30
2023-04-10T16:19:31.511Z,20.10
2023-04-10T16:22:33.112Z,19.80
2023-04-10T16:25:34.874Z,19.50
2023-04-10T16:28:36.460Z,19.30
2023-04-10T16:31:38.093Z,19.10
2023-04-10T16:34:39.819Z,18.90
2023-04-10T16:37:41.473Z,18.70
2023-04-10T16:40:43.040Z,18.60
2023-04-10T16:43:44.735Z,18.40
2023-04-10T16:46:46.342Z,18.30
2023-04-10T16:49:48.489Z,18.20
2023-04-10T16:52:50.323Z,18.00
2023-04-10T16:55:58.588Z,17.90
2023-04-10T16:59:00.509Z,17.90
2023-04-10T17:02:02.180Z,17.80
2023-04-10T17:05:03.893Z,17.70
2023-04-10T17:08:05.703Z,17.70
2023-04-10T17:11:07.604Z,17.50
2023-04-10T17:14:10.400Z,17.40
2023-04-10T17:17:12.047Z,17.30
2023-04-10T17:20:13.746Z,17.20
2023-04-10T17:23:15.480Z,17.10
2023-04-10T17:26:17.394Z,17.00
2023-04-10T17:29:19.022Z,17.00
2023-04-10T17:32:20.755Z,17.00
2023-04-10T17:35:22.387Z,16.90
2023-04-10T17:38:23.997Z,16.80
2023-04-10T17:41:25.684Z,16.70
2023-04-10T17:44:27.333Z,16.60
2023-04-10T17:47:29.210Z,16.50
2023-04-10T17:50:30.856Z,16.40
2023-04-10T17:53:32.469Z,16.30
2023-04-10T17:56:34.367Z,16.20
2023-04-10T17:59:35.930Z,16.10
2023-04-10T18:02:37.631Z,16.00
2023-04-10T18:05:39.697Z,15.90
2023-04-10T18:08:41.462Z,15.90
2023-04-10T18:11:43.173Z,15.80
2023-04-10T18:14:45.496Z,15.70
2023-04-10T18:17:47.192Z,15.70
2023-04-10T18:20:48.771Z,15.70
2023-04-10T18:23:51.463Z,15.60
2023-04-10T18:26:53.233Z,15.60
2023-04-10T18:29:56.979Z,15.50
2023-04-10T18:32:58.583Z,15.50
2023-04-10T18:36:00.388Z,15.50
2023-04-10T18:39:01.995Z,15.50
2023-04-10T18:42:03.711Z,15.50
2023-04-10T18:45:06.557Z,15.50
2023-04-10T18:48:09.366Z,15.50
2023-04-10T18:51:11.551Z,15.50
2023-04-10T18:54:13.084Z,15.50
2023-04-10T18:57:14.729Z,15.50
2023-04-10T19:00:16.437Z,15.50
2023-04-10T19:03:18.509Z,15.40
2023-04-10T19:06:24.094Z,15.40
2023-04-10T19:09:26.147Z,15.40
2023-04-10T19:12:27.709Z,15.30
2023-04-10T19:15:29.408Z,15.30
2023-04-10T19:18:31.602Z,15.30
2023-04-10T19:21:34.361Z,15.30
2023-04-10T19:24:35.954Z,15.30
2023-04-10T19:27:37.542Z,15.20
2023-04-10T19:30:39.135Z,15.20
2023-04-10T19:33:42.581Z,15.20
2023-04-10T19:36:44.240Z,15.10
2023-04-10T19:39:45.844Z,15.20
2023-04-10T19:42:47.508Z,15.10
2023-04-10T19:45:49.148Z,15.10
2023-04-10T19:48:51.880Z,15.10
2023-04-10T19:51:53.548Z,15.10
2023-04-10T19:54:55.273Z,15.10
2023-04-10T19:57:56.854Z,15.10
2023-04-10T20:01:03.524Z,15.10
2023-04-10T20:04:05.303Z,15.10
2023-04-10T20:07:07.222Z,15.00
2023-04-10T20:10:11.876Z,15.00
2023-04-10T20:13:13.715Z,15.00
2023-04-10T20:16:15.752Z,15.00
2023-04-10T20:19:17.852Z,15.00
2023-04-10T20:22:19.517Z,15.00
2023-04-10T20:25:21.074Z,15.00
2023-04-10T20:28:22.705Z,15.00
2023-04-10T20:31:24.330Z,15.00
2023-04-10T20:34:26.012Z,15.00
2023-04-10T20:37:27.838Z,14.90
2023-04-10T20:40:29.385Z,14.80
2023-04-10T20:43:31.537Z,14.70
2023-04-10T20:46:33.217Z,14.60
2023-04-10T20:49:37.298Z,14.50
2023-04-10T20:52:39.907Z,14.40
2023-04-10T20:55:41.899Z,14.40
2023-04-10T20:58:43.595Z,14.30
2023-04-10T21:01:45.289Z,14.30
2023-04-10T21:04:46.975Z,14.30
2023-04-10T21:07:48.583Z,14.40
2023-04-10T21:10:51.214Z,14.40
2023-04-10T21:13:53.380Z,14.40
2023-04-10T21:16:55.223Z,14.40
2023-04-10T21:19:58.565Z,14.40
2023-04-10T21:23:01.547Z,14.50
2023-04-10T21:26:03.377Z,14.50
2023-04-10T21:29:05.049Z,14.50
2023-04-10T21:32:06.865Z,14.50
2023-04-10T21:35:08.910Z,14.50
2023-04-10T21:38:13.561Z,14.50
2023-04-10T21:41:15.376Z,14.50
2023-04-10T21:44:17.017Z,14.50
2023-04-10T21:47:18.605Z,14.50
2023-04-10T21:50:20.304Z,14.40
2023-04-10T21:53:21.888Z,14.50
2023-04-10T21:56:23.584Z,14.50
2023-04-10T21:59:25.681Z,14.50
2023-04-10T22:02:27.527Z,14.40
2023-04-10T22:05:29.242Z,14.40
2023-04-10T22:08:30.888Z,14.40
2023-04-10T22:11:33.282Z,14.40
2023-04-10T22:14:34.942Z,14.30
2023-04-10T22:17:36.576Z,14.40
2023-04-10T22:20:38.169Z,14.40
2023-04-10T22:23:39.734Z,14.50
2023-04-10T22:26:42.091Z,14.50
2023-04-10T22:29:47.700Z,14.50
2023-04-10T22:32:57.816Z,14.60
2023-04-10T22:35:59.461Z,14.50
2023-04-10T22:39:01.505Z,14.10
2023-04-10T22:42:03.175Z,13.40
2023-04-10T22:45:05.394Z,13.00
2023-04-10T22:48:07.052Z,12.70
2023-04-10T22:51:12.349Z,12.50
2023-04-10T22:54:15.764Z,12.40
2023-04-10T22:57:17.301Z,12.40
2023-04-10T23:00:19.034Z,12.40
2023-04-10T23:03:20.833Z,12.30
2023-04-10T23:06:22.465Z,12.40
2023-04-10T23:09:24.022Z,12.40
2023-04-10T23:12:26.784Z,12.40
2023-04-10T23:15:28.442Z,12.50
2023-04-10T23:18:30.228Z,12.60
2023-04-10T23:21:31.849Z,12.60
2023-04-10T23:24:33.482Z,12.70
2023-04-10T23:27:35.175Z,12.60
2023-04-10T23:30:36.873Z,12.60
2023-04-10T23:33:38.468Z,12.60
2023-04-10T23:36:40.457Z,12.60
2023-04-10T23:39:42.074Z,12.60
2023-04-10T23:42:43.722Z,12.50
2023-04-10T23:45:45.310Z,12.50
2023-04-10T23:48:46.848Z,12.50
2023-04-10T23:51:48.425Z,12.50
2023-04-10T23:54:50.138Z,12.40
2023-04-10T23:57:51.861Z,12.20
